createdAt,value
2017-10-29T00:00:39.128Z,0
2017-10-29T00:01:19.701Z,0
2017-10-29T00:02:00.279Z,0
2017-10-29T00:02:40.875Z,0
2017-10-29T00:03:21.454Z,0
2017-10-29T00:04:02.067Z,0
2017-10-29T00:04:42.643Z,0
2017-10-29T00:05:23.222Z,0
2017-10-29T00:06:03.792Z,0
2017-10-29T00:06:44.392Z,0
2017-10-29T00:07:24.965Z,0
2017-10-29T00:08:05.532Z,0
2017-10-29T00:08:46.110Z,0
2017-10-29T00:09:26.684Z,0
2017-10-29T00:10:07.269Z,0
2017-10-29T00:10:47.863Z,0
2017-10-29T00:11:28.440Z,0
2017-10-29T00:12:09.004Z,0
2017-10-29T00:12:49.600Z,0
2017-10-29T00:13:30.172Z,0
2017-10-29T00:14:10.770Z,0
2017-10-29T00:14:51.357Z,0
2017-10-29T00:15:31.963Z,0
2017-10-29T00:16:12.554Z,0
2017-10-29T00:16:53.123Z,0
2017-10-29T00:17:33.693Z,0
2017-10-29T00:18:14.254Z,0
2017-10-29T00:18:54.835Z,0
2017-10-29T00:19:35.406Z,0
2017-10-29T00:20:15.984Z,0
2017-10-29T00:20:56.586Z,0
2017-10-29T00:21:37.166Z,0
2017-10-29T00:22:17.772Z,0
2017-10-29T00:22:58.347Z,0
2017-10-29T00:23:38.899Z,0
2017-10-29T00:24:19.493Z,0
2017-10-29T00:25:00.083Z,0
2017-10-29T00:25:40.664Z,0
2017-10-29T00:26:21.236Z,0
2017-10-29T00:27:01.820Z,0
2017-10-29T00:27:42.394Z,0
2017-10-29T00:28:22.965Z,0
2017-10-29T00:29:03.516Z,0
2017-10-29T00:29:44.090Z,0
2017-10-29T00:30:24.658Z,0
2017-10-29T00:31:05.255Z,0
2017-10-29T00:31:45.824Z,0
2017-10-29T00:32:26.388Z,0
2017-10-29T00:33:06.962Z,0
2017-10-29T00:33:47.537Z,0
2017-10-29T00:34:28.109Z,0
2017-10-29T00:35:08.671Z,0
2017-10-29T00:35:49.244Z,0
2017-10-29T00:36:29.805Z,0
2017-10-29T00:37:10.383Z,0
2017-10-29T00:37:50.980Z,0
2017-10-29T00:38:31.574Z,0
2017-10-29T00:39:12.144Z,0
2017-10-29T00:39:52.701Z,0
2017-10-29T00:40:33.306Z,0
2017-10-29T00:41:13.892Z,0
2017-10-29T00:41:54.467Z,0
2017-10-29T00:42:35.040Z,0
2017-10-29T00:43:15.639Z,0
2017-10-29T00:43:56.218Z,0
2017-10-29T00:44:36.784Z,0
2017-10-29T00:45:17.356Z,0
2017-10-29T00:45:57.935Z,0
2017-10-29T00:46:38.511Z,0
2017-10-29T00:47:19.117Z,0
2017-10-29T00:47:59.686Z,0
2017-10-29T00:48:40.266Z,0
2017-10-29T00:49:20.848Z,0
2017-10-29T00:50:01.421Z,0
2017-10-29T00:50:42.017Z,0
2017-10-29T00:51:22.614Z,0
2017-10-29T00:52:03.206Z,0
2017-10-29T00:52:43.796Z,0
2017-10-29T00:53:24.388Z,0
2017-10-29T00:54:04.975Z,0
2017-10-29T00:54:45.537Z,0
2017-10-29T00:55:26.139Z,0
2017-10-29T00:56:06.805Z,0
2017-10-29T00:56:47.365Z,0
2017-10-29T00:57:27.947Z,0
2017-10-29T00:58:08.533Z,0
2017-10-29T00:58:49.143Z,0
2017-10-29T00:59:29.716Z,0
2017-10-29T01:00:10.297Z,0
2017-10-29T01:00:50.877Z,0
2017-10-29T01:01:31.435Z,0
2017-10-29T01:02:12.048Z,0
2017-10-29T01:02:52.618Z,0
2017-10-29T01:03:33.195Z,0
2017-10-29T01:04:13.801Z,0
2017-10-29T01:04:54.370Z,0
2017-10-29T01:05:34.962Z,0
2017-10-29T01:06:15.536Z,0
2017-10-29T01:06:56.143Z,0
2017-10-29T01:07:36.737Z,0
2017-10-29T01:08:17.333Z,0
2017-10-29T01:08:57.914Z,0
2017-10-29T01:09:38.523Z,0
2017-10-29T01:10:19.074Z,0
2017-10-29T01:10:59.694Z,0
2017-10-29T01:11:40.270Z,0
2017-10-29T01:12:20.848Z,0
2017-10-29T01:13:01.430Z,0
2017-10-29T01:13:42.009Z,0
2017-10-29T01:14:22.573Z,0
2017-10-29T01:15:03.149Z,0
2017-10-29T01:15:43.727Z,0
2017-10-29T01:16:24.305Z,0
2017-10-29T01:17:04.876Z,0
2017-10-29T01:17:45.460Z,0
2017-10-29T01:18:26.045Z,0
2017-10-29T01:19:06.625Z,0
2017-10-29T01:19:47.200Z,0
2017-10-29T01:20:27.782Z,0
2017-10-29T01:21:08.359Z,0
2017-10-29T01:21:48.936Z,0
2017-10-29T01:22:29.500Z,0
2017-10-29T01:23:10.084Z,0
2017-10-29T01:23:50.676Z,0
2017-10-29T01:24:31.260Z,0
2017-10-29T01:25:11.854Z,0
2017-10-29T01:25:52.415Z,0
2017-10-29T01:26:32.990Z,0
2017-10-29T01:27:13.571Z,0
2017-10-29T01:27:54.146Z,0
2017-10-29T01:28:34.747Z,0
2017-10-29T01:29:15.310Z,0
2017-10-29T01:29:55.879Z,0
2017-10-29T01:30:36.455Z,0
2017-10-29T01:31:17.042Z,0
2017-10-29T01:31:57.617Z,0
2017-10-29T01:32:38.209Z,0
2017-10-29T01:33:18.788Z,0
2017-10-29T01:33:59.360Z,0
2017-10-29T01:34:39.960Z,0
2017-10-29T01:35:20.557Z,0
2017-10-29T01:36:01.125Z,0
2017-10-29T01:36:41.690Z,0
2017-10-29T01:37:22.278Z,0
2017-10-29T01:38:02.844Z,0
2017-10-29T01:38:43.410Z,0
2017-10-29T01:39:23.980Z,0
2017-10-29T01:40:04.568Z,0
2017-10-29T01:40:45.161Z,0
2017-10-29T01:41:25.735Z,0
2017-10-29T01:42:06.372Z,0
2017-10-29T01:42:46.941Z,0
2017-10-29T01:43:27.558Z,0
2017-10-29T01:44:08.150Z,0
2017-10-29T01:44:48.745Z,0
2017-10-29T01:45:29.314Z,0
2017-10-29T01:46:09.903Z,0
2017-10-29T01:46:50.475Z,0
2017-10-29T01:47:31.035Z,0
2017-10-29T01:48:11.621Z,0
2017-10-29T01:48:52.191Z,0
2017-10-29T01:49:32.756Z,0
2017-10-29T01:50:13.374Z,0
2017-10-29T01:50:53.939Z,0
2017-10-29T01:51:34.517Z,0
2017-10-29T01:52:15.118Z,0
2017-10-29T01:52:55.707Z,0
2017-10-29T01:53:36.308Z,0
2017-10-29T01:54:16.873Z,0
2017-10-29T01:54:57.450Z,0
2017-10-29T01:55:38.028Z,0
2017-10-29T01:56:18.611Z,0
2017-10-29T01:56:59.177Z,0
2017-10-29T01:57:39.760Z,0
2017-10-29T01:58:20.324Z,0
2017-10-29T01:59:00.886Z,0
2017-10-29T01:59:41.480Z,0
2017-10-29T02:00:22.059Z,0
2017-10-29T02:01:02.630Z,0
2017-10-29T02:01:43.192Z,0
2017-10-29T02:02:23.784Z,0
2017-10-29T02:03:04.392Z,0
2017-10-29T02:03:45.005Z,0
2017-10-29T02:04:25.571Z,0
2017-10-29T02:05:06.162Z,0
2017-10-29T02:05:46.743Z,0
2017-10-29T02:06:27.308Z,0
2017-10-29T02:07:07.897Z,0
2017-10-29T02:07:48.501Z,0
2017-10-29T02:08:29.054Z,0
2017-10-29T02:09:09.674Z,0
2017-10-29T02:09:50.249Z,0
2017-10-29T02:10:30.830Z,0
2017-10-29T02:11:11.395Z,0
2017-10-29T02:11:51.962Z,0
2017-10-29T02:12:32.548Z,0
2017-10-29T02:13:13.131Z,0
2017-10-29T02:13:53.696Z,0
2017-10-29T02:14:34.293Z,0
2017-10-29T02:15:14.891Z,0
2017-10-29T02:15:55.483Z,0
2017-10-29T02:16:36.046Z,0
2017-10-29T02:17:16.637Z,0
2017-10-29T02:17:57.246Z,0
2017-10-29T02:18:37.832Z,0
2017-10-29T02:19:18.400Z,0
2017-10-29T02:19:58.986Z,0
2017-10-29T02:20:39.561Z,0
2017-10-29T02:21:20.169Z,0
2017-10-29T02:22:00.768Z,0
2017-10-29T02:22:41.370Z,0
2017-10-29T02:23:21.961Z,0
2017-10-29T02:24:02.547Z,0
2017-10-29T02:24:43.123Z,0
2017-10-29T02:25:23.697Z,0
2017-10-29T02:26:04.282Z,0
2017-10-29T02:26:44.857Z,0
2017-10-29T02:27:25.465Z,0
2017-10-29T02:28:06.054Z,0
2017-10-29T02:28:46.647Z,0
2017-10-29T02:29:27.232Z,0
2017-10-29T02:30:07.855Z,0
2017-10-29T02:30:48.453Z,0
2017-10-29T02:31:29.020Z,0
2017-10-29T02:32:09.602Z,0
2017-10-29T02:32:50.189Z,0
2017-10-29T02:33:30.805Z,0
2017-10-29T02:34:11.399Z,0
2017-10-29T02:34:52.001Z,0
2017-10-29T02:35:32.549Z,0
2017-10-29T02:36:13.126Z,0
2017-10-29T02:36:53.719Z,0
2017-10-29T02:37:34.284Z,0
2017-10-29T02:38:14.851Z,0
2017-10-29T02:38:55.410Z,0
2017-10-29T02:39:36.015Z,0
2017-10-29T02:40:16.597Z,0
2017-10-29T02:40:57.152Z,0
2017-10-29T02:41:37.721Z,0
2017-10-29T02:42:18.307Z,0
2017-10-29T02:42:58.883Z,0
2017-10-29T02:43:39.492Z,0
2017-10-29T02:44:20.057Z,0
2017-10-29T02:45:00.673Z,0
2017-10-29T02:45:41.225Z,0
2017-10-29T02:46:21.817Z,0
2017-10-29T02:47:02.376Z,0
2017-10-29T02:47:42.941Z,0
2017-10-29T02:48:23.500Z,0
2017-10-29T02:49:04.071Z,0
2017-10-29T02:49:44.699Z,0
2017-10-29T02:50:25.272Z,0
2017-10-29T02:51:05.841Z,0
2017-10-29T02:51:46.399Z,0
2017-10-29T02:52:26.972Z,0
2017-10-29T02:53:07.553Z,0
2017-10-29T02:53:48.134Z,0
2017-10-29T02:54:28.704Z,0
2017-10-29T02:55:09.276Z,0
2017-10-29T02:55:49.851Z,0
2017-10-29T02:56:30.406Z,0
2017-10-29T02:57:10.996Z,0
2017-10-29T02:57:51.576Z,0
2017-10-29T02:58:32.153Z,0
2017-10-29T02:59:12.722Z,0
2017-10-29T02:59:53.334Z,0
2017-10-29T03:00:33.919Z,0
2017-10-29T03:01:14.491Z,0
2017-10-29T03:01:55.067Z,0
2017-10-29T03:02:35.664Z,0
2017-10-29T03:03:16.226Z,0
2017-10-29T03:03:56.841Z,0
2017-10-29T03:04:37.389Z,0
2017-10-29T03:05:17.981Z,0
2017-10-29T03:05:58.596Z,0
2017-10-29T03:06:39.180Z,0
2017-10-29T03:07:19.739Z,0
2017-10-29T03:08:00.307Z,0
2017-10-29T03:08:40.897Z,0
2017-10-29T03:09:21.477Z,0
2017-10-29T03:10:02.093Z,0
2017-10-29T03:10:42.689Z,0
2017-10-29T03:11:23.268Z,0
2017-10-29T03:12:03.840Z,0
2017-10-29T03:12:44.436Z,0
2017-10-29T03:13:25.005Z,0
2017-10-29T03:14:05.643Z,0
2017-10-29T03:14:46.213Z,0
2017-10-29T03:15:26.785Z,0
2017-10-29T03:16:07.374Z,0
2017-10-29T03:16:47.948Z,0
2017-10-29T03:17:28.528Z,0
2017-10-29T03:18:09.101Z,0
2017-10-29T03:18:49.683Z,0
2017-10-29T03:19:30.304Z,0
2017-10-29T03:20:10.913Z,0
2017-10-29T03:20:51.495Z,0
2017-10-29T03:21:32.103Z,0
2017-10-29T03:22:12.680Z,0
2017-10-29T03:22:53.271Z,0
2017-10-29T03:23:33.833Z,0
2017-10-29T03:24:14.430Z,0
2017-10-29T03:24:54.990Z,0
2017-10-29T03:25:35.634Z,0
2017-10-29T03:26:16.244Z,0
2017-10-29T03:26:56.810Z,0
2017-10-29T03:27:37.398Z,0
2017-10-29T03:28:17.998Z,0
2017-10-29T03:28:58.574Z,0
2017-10-29T03:29:39.173Z,0
2017-10-29T03:30:19.768Z,0
2017-10-29T03:31:00.361Z,0
2017-10-29T03:31:40.961Z,0
2017-10-29T03:32:21.553Z,0
2017-10-29T03:33:02.142Z,0
2017-10-29T03:33:42.731Z,0
2017-10-29T03:34:23.314Z,0
2017-10-29T03:35:03.880Z,0
2017-10-29T03:35:44.451Z,0
2017-10-29T03:36:25.052Z,0
2017-10-29T03:37:05.648Z,0
2017-10-29T03:37:46.242Z,0
2017-10-29T03:38:26.818Z,0
2017-10-29T03:39:07.398Z,0
2017-10-29T03:39:48.012Z,0
2017-10-29T03:40:28.585Z,0
2017-10-29T03:41:09.189Z,0
2017-10-29T03:41:49.759Z,0
2017-10-29T03:42:30.346Z,0
2017-10-29T03:43:10.912Z,0
2017-10-29T03:43:51.521Z,0
2017-10-29T03:44:32.116Z,0
2017-10-29T03:45:12.719Z,0
2017-10-29T03:45:53.293Z,0
2017-10-29T03:46:33.874Z,0
2017-10-29T03:47:14.481Z,0
2017-10-29T03:47:55.084Z,0
2017-10-29T03:48:35.663Z,0
2017-10-29T03:49:16.249Z,0
2017-10-29T03:49:56.829Z,0
2017-10-29T03:50:37.465Z,0
2017-10-29T03:51:18.036Z,0
2017-10-29T03:51:58.614Z,0
2017-10-29T03:52:39.246Z,0
2017-10-29T03:53:19.861Z,0
2017-10-29T03:54:00.431Z,0
2017-10-29T03:54:41.050Z,0
2017-10-29T03:55:21.644Z,0
2017-10-29T03:56:02.215Z,0
2017-10-29T03:56:42.783Z,0
2017-10-29T03:57:23.341Z,0
2017-10-29T03:58:03.895Z,0
2017-10-29T03:58:44.461Z,0
2017-10-29T03:59:25.038Z,0
2017-10-29T04:00:05.605Z,0
2017-10-29T04:00:46.178Z,0
2017-10-29T04:01:26.750Z,0
2017-10-29T04:02:07.365Z,0
2017-10-29T04:02:47.936Z,0
2017-10-29T04:03:28.512Z,0
2017-10-29T04:04:09.091Z,0
2017-10-29T04:04:49.667Z,0
2017-10-29T04:05:30.237Z,0
2017-10-29T04:06:10.816Z,0
2017-10-29T04:06:51.396Z,0
2017-10-29T04:07:31.968Z,0
2017-10-29T04:08:12.550Z,0
2017-10-29T04:08:53.123Z,0
2017-10-29T04:09:33.724Z,0
2017-10-29T04:10:14.315Z,0
2017-10-29T04:10:54.902Z,0
2017-10-29T04:11:35.501Z,0
2017-10-29T04:12:16.094Z,0
2017-10-29T04:12:56.665Z,0
2017-10-29T04:13:37.237Z,0
2017-10-29T04:14:17.840Z,0
2017-10-29T04:14:58.388Z,0
2017-10-29T04:15:38.958Z,0
2017-10-29T04:16:19.540Z,0
2017-10-29T04:17:00.108Z,0
2017-10-29T04:17:40.677Z,0
2017-10-29T04:18:21.268Z,0
2017-10-29T04:19:01.849Z,0
2017-10-29T04:19:42.428Z,0
2017-10-29T04:20:23.018Z,0
2017-10-29T04:21:03.584Z,0
2017-10-29T04:21:44.171Z,0
2017-10-29T04:22:24.758Z,0
2017-10-29T04:23:05.357Z,0
2017-10-29T04:23:45.981Z,0
2017-10-29T04:24:26.552Z,0
2017-10-29T04:25:07.151Z,0
2017-10-29T04:25:47.728Z,0
2017-10-29T04:26:28.319Z,0
2017-10-29T04:27:08.897Z,0
2017-10-29T04:27:49.477Z,0
2017-10-29T04:28:30.046Z,0
2017-10-29T04:29:10.623Z,0
2017-10-29T04:29:51.192Z,0
2017-10-29T04:30:31.750Z,0
2017-10-29T04:31:12.315Z,0
2017-10-29T04:31:52.903Z,0
2017-10-29T04:32:33.494Z,0
2017-10-29T04:33:14.064Z,0
2017-10-29T04:33:54.649Z,0
2017-10-29T04:34:35.221Z,0
2017-10-29T04:35:15.798Z,0
2017-10-29T04:35:56.362Z,0
2017-10-29T04:36:36.924Z,0
2017-10-29T04:37:17.498Z,0
2017-10-29T04:37:58.092Z,0
2017-10-29T04:38:38.699Z,0
2017-10-29T04:39:19.262Z,0
2017-10-29T04:39:59.837Z,0
2017-10-29T04:40:40.409Z,0
2017-10-29T04:41:21.002Z,0
2017-10-29T04:42:01.574Z,0
2017-10-29T04:42:42.143Z,0
2017-10-29T04:43:22.738Z,0
2017-10-29T04:44:03.314Z,0
2017-10-29T04:44:43.893Z,0
2017-10-29T04:45:24.547Z,0
2017-10-29T04:46:05.116Z,0
2017-10-29T04:46:45.695Z,0
2017-10-29T04:47:26.256Z,0
2017-10-29T04:48:06.823Z,0
2017-10-29T04:48:47.396Z,0
2017-10-29T04:49:27.967Z,0
2017-10-29T04:50:08.546Z,0
2017-10-29T04:50:49.109Z,0
2017-10-29T04:51:29.688Z,0
2017-10-29T04:52:10.249Z,0
2017-10-29T04:52:50.836Z,0
2017-10-29T04:53:31.410Z,0
2017-10-29T04:54:11.972Z,0
2017-10-29T04:54:52.577Z,0
2017-10-29T04:55:33.168Z,0
2017-10-29T04:56:13.731Z,0
2017-10-29T04:56:54.337Z,0
2017-10-29T04:57:34.927Z,0
2017-10-29T04:58:15.481Z,0
2017-10-29T04:58:56.072Z,0
2017-10-29T04:59:36.647Z,0
2017-10-29T05:00:17.237Z,0
2017-10-29T05:00:57.828Z,0
2017-10-29T05:01:38.433Z,0
2017-10-29T05:02:18.998Z,0
2017-10-29T05:02:59.599Z,0
2017-10-29T05:03:40.149Z,0
2017-10-29T05:04:20.730Z,0
2017-10-29T05:05:01.327Z,0
2017-10-29T05:05:41.894Z,0
2017-10-29T05:06:22.466Z,0
2017-10-29T05:07:03.047Z,0
2017-10-29T05:07:43.617Z,0
2017-10-29T05:08:24.176Z,0
2017-10-29T05:09:04.756Z,0
2017-10-29T05:09:45.317Z,0
2017-10-29T05:10:25.892Z,0
2017-10-29T05:11:06.464Z,0
2017-10-29T05:11:47.034Z,0
2017-10-29T05:12:27.619Z,0
2017-10-29T05:13:08.203Z,0
2017-10-29T05:13:48.773Z,0
2017-10-29T05:14:29.349Z,0
2017-10-29T05:15:09.933Z,0
2017-10-29T05:15:50.511Z,0
2017-10-29T05:16:31.107Z,0
2017-10-29T05:17:11.674Z,0
2017-10-29T05:17:52.240Z,0
2017-10-29T05:18:32.833Z,0
2017-10-29T05:19:13.411Z,0
2017-10-29T05:19:54.026Z,0
2017-10-29T05:20:34.610Z,0
2017-10-29T05:21:15.200Z,0
2017-10-29T05:21:55.792Z,0
2017-10-29T05:22:36.371Z,0
2017-10-29T05:23:16.947Z,0
2017-10-29T05:23:57.513Z,0
2017-10-29T05:24:38.081Z,0
2017-10-29T05:25:18.656Z,4
2017-10-29T05:25:59.224Z,4
2017-10-29T05:26:39.805Z,4
2017-10-29T05:27:20.413Z,0
2017-10-29T05:28:00.989Z,4
2017-10-29T05:28:41.604Z,4
2017-10-29T05:29:22.265Z,4
2017-10-29T05:30:02.822Z,4
2017-10-29T05:30:43.443Z,4
2017-10-29T05:31:24.018Z,4
2017-10-29T05:32:04.586Z,0
2017-10-29T05:32:45.165Z,4
2017-10-29T05:33:25.736Z,4
2017-10-29T05:34:06.335Z,4
2017-10-29T05:34:46.914Z,4
2017-10-29T05:35:27.497Z,4
2017-10-29T05:36:08.071Z,4
2017-10-29T05:36:48.651Z,8
2017-10-29T05:37:29.244Z,12
2017-10-29T05:38:09.842Z,16
2017-10-29T05:38:50.390Z,16
2017-10-29T05:39:30.972Z,20
2017-10-29T05:40:11.549Z,16
2017-10-29T05:40:52.134Z,12
2017-10-29T05:41:32.708Z,20
2017-10-29T05:42:13.279Z,16
2017-10-29T05:42:53.845Z,12
2017-10-29T05:43:34.452Z,12
2017-10-29T05:44:15.024Z,12
2017-10-29T05:44:55.590Z,12
2017-10-29T05:45:36.187Z,12
2017-10-29T05:46:16.764Z,12
2017-10-29T05:46:57.343Z,16
2017-10-29T05:47:37.910Z,16
2017-10-29T05:48:18.493Z,20
2017-10-29T05:48:59.092Z,16
2017-10-29T05:49:39.714Z,20
2017-10-29T05:50:20.285Z,36
2017-10-29T05:51:00.905Z,32
2017-10-29T05:51:41.473Z,32
2017-10-29T05:52:22.043Z,28
2017-10-29T05:53:02.609Z,32
2017-10-29T05:53:43.204Z,28
2017-10-29T05:54:23.799Z,28
2017-10-29T05:55:04.368Z,28
2017-10-29T05:55:44.936Z,28
2017-10-29T05:56:25.553Z,28
2017-10-29T05:57:06.162Z,40
2017-10-29T05:57:46.714Z,48
2017-10-29T05:58:27.304Z,56
2017-10-29T05:59:07.874Z,60
2017-10-29T05:59:48.455Z,68
2017-10-29T06:00:29.067Z,84
2017-10-29T06:01:09.658Z,88
2017-10-29T06:01:50.228Z,76
2017-10-29T06:02:30.825Z,60
2017-10-29T06:03:11.400Z,56
2017-10-29T06:03:51.981Z,56
2017-10-29T06:04:32.577Z,56
2017-10-29T06:05:13.156Z,56
2017-10-29T06:05:53.722Z,40
2017-10-29T06:06:34.328Z,36
2017-10-29T06:07:14.882Z,36
2017-10-29T06:07:55.500Z,36
2017-10-29T06:08:36.088Z,36
2017-10-29T06:09:16.657Z,36
2017-10-29T06:09:57.227Z,36
2017-10-29T06:10:37.797Z,32
2017-10-29T06:11:18.390Z,36
2017-10-29T06:11:59.001Z,40
2017-10-29T06:12:39.571Z,48
2017-10-29T06:13:20.165Z,48
2017-10-29T06:14:00.731Z,44
2017-10-29T06:14:41.326Z,48
2017-10-29T06:15:21.917Z,52
2017-10-29T06:16:02.534Z,56
2017-10-29T06:16:43.081Z,60
2017-10-29T06:17:23.653Z,76
2017-10-29T06:18:04.217Z,84
2017-10-29T06:18:44.821Z,88
2017-10-29T06:19:25.384Z,100
2017-10-29T06:20:05.961Z,116
2017-10-29T06:20:46.532Z,112
2017-10-29T06:21:27.101Z,84
2017-10-29T06:22:07.681Z,84
2017-10-29T06:22:48.262Z,80
2017-10-29T06:23:28.829Z,72
2017-10-29T06:24:09.456Z,64
2017-10-29T06:24:50.020Z,60
2017-10-29T06:25:30.597Z,68
2017-10-29T06:26:11.158Z,72
2017-10-29T06:26:51.730Z,80
2017-10-29T06:27:32.300Z,84
2017-10-29T06:28:12.892Z,76
2017-10-29T06:28:53.473Z,64
2017-10-29T06:29:34.040Z,64
2017-10-29T06:30:14.614Z,76
2017-10-29T06:30:55.222Z,96
2017-10-29T06:31:35.818Z,112
2017-10-29T06:32:16.375Z,120
2017-10-29T06:32:56.944Z,104
2017-10-29T06:33:37.529Z,92
2017-10-29T06:34:18.134Z,88
2017-10-29T06:34:58.716Z,92
2017-10-29T06:35:39.285Z,88
2017-10-29T06:36:19.870Z,72
2017-10-29T06:37:00.477Z,68
2017-10-29T06:37:41.046Z,76
2017-10-29T06:38:21.648Z,84
2017-10-29T06:39:02.204Z,92
2017-10-29T06:39:42.779Z,108
2017-10-29T06:40:23.345Z,136
2017-10-29T06:41:03.918Z,156
2017-10-29T06:41:44.503Z,172
2017-10-29T06:42:25.103Z,188
2017-10-29T06:43:05.697Z,200
2017-10-29T06:43:46.264Z,184
2017-10-29T06:44:26.854Z,172
2017-10-29T06:45:07.449Z,172
2017-10-29T06:45:48.040Z,180
2017-10-29T06:46:28.626Z,164
2017-10-29T06:47:09.197Z,180
2017-10-29T06:47:49.772Z,168
2017-10-29T06:48:30.406Z,208
2017-10-29T06:49:10.998Z,180
2017-10-29T06:49:51.572Z,188
2017-10-29T06:50:32.150Z,228
2017-10-29T06:51:12.715Z,288
2017-10-29T06:51:53.283Z,372
2017-10-29T06:52:33.859Z,456
2017-10-29T06:53:14.446Z,596
2017-10-29T06:53:55.016Z,756
2017-10-29T06:54:35.598Z,564
2017-10-29T06:55:16.181Z,652
2017-10-29T06:55:56.779Z,760
2017-10-29T06:56:37.352Z,632
2017-10-29T06:57:17.940Z,688
2017-10-29T06:57:58.509Z,732
2017-10-29T06:58:39.110Z,1000
2017-10-29T06:59:19.698Z,1164
2017-10-29T07:00:00.291Z,1348
2017-10-29T07:00:40.905Z,1836
2017-10-29T07:01:21.478Z,1992
2017-10-29T07:02:02.050Z,1540
2017-10-29T07:02:42.618Z,1140
2017-10-29T07:03:23.242Z,896
2017-10-29T07:04:03.802Z,756
2017-10-29T07:04:44.468Z,844
2017-10-29T07:05:25.048Z,1080
2017-10-29T07:06:05.622Z,1324
2017-10-29T07:06:46.201Z,1580
2017-10-29T07:07:26.765Z,1216
2017-10-29T07:08:07.335Z,1088
2017-10-29T07:08:47.944Z,1192
2017-10-29T07:09:28.559Z,1028
2017-10-29T07:10:09.134Z,1064
2017-10-29T07:10:49.705Z,1024
2017-10-29T07:11:30.296Z,1256
2017-10-29T07:12:10.887Z,1696
2017-10-29T07:12:51.459Z,1908
2017-10-29T07:13:32.028Z,1724
2017-10-29T07:14:12.621Z,1420
2017-10-29T07:14:53.195Z,1268
2017-10-29T07:15:33.764Z,1072
2017-10-29T07:16:14.359Z,940
2017-10-29T07:16:54.945Z,932
2017-10-29T07:17:35.552Z,960
2017-10-29T07:18:16.319Z,968
2017-10-29T07:18:57.038Z,932
2017-10-29T07:19:37.618Z,876
2017-10-29T07:20:18.240Z,688
2017-10-29T07:20:58.983Z,624
2017-10-29T07:21:39.859Z,740
2017-10-29T07:22:20.430Z,792
2017-10-29T07:23:01.105Z,772
2017-10-29T07:23:41.759Z,844
2017-10-29T07:24:22.495Z,1088
2017-10-29T07:25:03.143Z,1104
2017-10-29T07:25:43.751Z,1020
2017-10-29T07:26:24.340Z,764
2017-10-29T07:27:04.894Z,528
2017-10-29T07:27:45.604Z,536
2017-10-29T07:28:26.174Z,528
2017-10-29T07:29:06.869Z,580
2017-10-29T07:29:47.500Z,520
2017-10-29T07:30:28.091Z,516
2017-10-29T07:31:08.822Z,604
2017-10-29T07:31:49.396Z,680
2017-10-29T07:32:30.004Z,732
2017-10-29T07:33:10.606Z,724
2017-10-29T07:33:51.359Z,776
2017-10-29T07:34:32.019Z,800
2017-10-29T07:35:12.570Z,796
2017-10-29T07:35:53.147Z,700
2017-10-29T07:36:33.816Z,616
2017-10-29T07:37:14.384Z,648
2017-10-29T07:37:54.935Z,792
2017-10-29T07:38:35.510Z,1024
2017-10-29T07:39:16.242Z,960
2017-10-29T07:39:57.607Z,808
2017-10-29T07:40:38.349Z,700
2017-10-29T07:41:18.903Z,644
2017-10-29T07:41:59.660Z,580
2017-10-29T07:42:40.279Z,512
2017-10-29T07:43:21.874Z,484
2017-10-29T07:44:02.800Z,728
2017-10-29T07:44:43.936Z,944
2017-10-29T07:45:26.007Z,992
2017-10-29T07:46:07.812Z,984
2017-10-29T07:46:48.970Z,844
2017-10-29T07:47:30.301Z,752
2017-10-29T07:48:12.228Z,704
2017-10-29T07:48:53.712Z,568
2017-10-29T07:49:34.588Z,656
2017-10-29T07:50:15.247Z,1020
2017-10-29T07:50:55.953Z,1144
2017-10-29T07:51:36.609Z,844
2017-10-29T07:52:17.351Z,720
2017-10-29T07:52:57.946Z,732
2017-10-29T07:53:38.504Z,724
2017-10-29T07:54:19.113Z,640
2017-10-29T07:54:59.687Z,588
2017-10-29T07:55:40.367Z,544
2017-10-29T07:56:21.182Z,500
2017-10-29T07:57:01.766Z,456
2017-10-29T07:57:42.333Z,460
2017-10-29T07:58:22.901Z,556
2017-10-29T07:59:03.485Z,692
2017-10-29T07:59:44.070Z,616
2017-10-29T08:00:24.665Z,632
2017-10-29T08:01:05.243Z,564
2017-10-29T08:01:45.843Z,512
2017-10-29T08:02:26.420Z,600
2017-10-29T08:03:08.202Z,660
2017-10-29T08:03:48.764Z,376
2017-10-29T08:04:29.349Z,316
2017-10-29T08:05:09.928Z,352
2017-10-29T08:05:50.791Z,504
2017-10-29T08:06:31.384Z,496
2017-10-29T08:07:11.973Z,552
2017-10-29T08:07:52.663Z,688
2017-10-29T08:08:33.241Z,664
2017-10-29T08:09:14.004Z,808
2017-10-29T08:09:54.842Z,760
2017-10-29T08:10:35.732Z,772
2017-10-29T08:11:16.443Z,780
2017-10-29T08:11:57.689Z,736
2017-10-29T08:12:38.404Z,920
2017-10-29T08:13:19.100Z,1124
2017-10-29T08:13:59.914Z,940
2017-10-29T08:14:40.474Z,732
2017-10-29T08:15:21.047Z,808
2017-10-29T08:16:01.636Z,964
2017-10-29T08:16:42.326Z,1172
2017-10-29T08:17:22.923Z,1064
2017-10-29T08:18:03.511Z,904
2017-10-29T08:18:44.092Z,752
2017-10-29T08:19:24.700Z,728
2017-10-29T08:20:05.477Z,608
2017-10-29T08:20:46.103Z,764
2017-10-29T08:21:26.677Z,916
2017-10-29T08:22:07.252Z,704
2017-10-29T08:22:47.875Z,612
2017-10-29T08:23:28.719Z,576
2017-10-29T08:24:09.647Z,680
2017-10-29T08:24:50.698Z,676
2017-10-29T08:25:32.337Z,752
2017-10-29T08:26:13.423Z,716
2017-10-29T08:26:53.993Z,612
2017-10-29T08:27:34.715Z,656
2017-10-29T08:28:15.728Z,764
2017-10-29T08:28:58.219Z,552
2017-10-29T08:29:40.427Z,616
2017-10-29T08:30:22.682Z,744
2017-10-29T08:31:05.407Z,824
2017-10-29T08:31:46.816Z,708
2017-10-29T08:32:29.011Z,720
2017-10-29T08:33:09.746Z,1028
2017-10-29T08:33:51.618Z,932
2017-10-29T08:34:33.904Z,1416
2017-10-29T08:35:15.940Z,1108
2017-10-29T08:35:58.574Z,976
2017-10-29T08:36:41.171Z,1272
2017-10-29T08:37:22.623Z,1300
2017-10-29T08:38:04.632Z,1012
2017-10-29T08:38:46.445Z,896
2017-10-29T08:39:27.813Z,1228
2017-10-29T08:40:10.248Z,1784
2017-10-29T08:40:52.155Z,1140
2017-10-29T08:41:34.006Z,1056
2017-10-29T08:42:15.722Z,1544
2017-10-29T08:42:57.799Z,1216
2017-10-29T08:43:40.679Z,1324
2017-10-29T08:44:21.464Z,1128
2017-10-29T08:45:03.195Z,768
2017-10-29T08:45:44.377Z,664
2017-10-29T08:46:24.997Z,728
2017-10-29T08:47:05.583Z,772
2017-10-29T08:47:46.207Z,932
2017-10-29T08:48:26.949Z,980
2017-10-29T08:49:07.770Z,900
2017-10-29T08:49:48.473Z,1052
2017-10-29T08:50:29.091Z,1084
2017-10-29T08:51:09.738Z,1184
2017-10-29T08:51:51.252Z,1268
2017-10-29T08:52:31.704Z,1360
2017-10-29T08:53:12.592Z,1248
2017-10-29T08:53:53.447Z,1136
2017-10-29T08:54:34.071Z,1060
2017-10-29T08:55:14.948Z,1048
2017-10-29T08:55:55.739Z,1056
2017-10-29T08:56:36.335Z,1028
2017-10-29T08:57:16.942Z,964
2017-10-29T08:57:57.543Z,944
2017-10-29T08:58:38.130Z,984
2017-10-29T08:59:18.734Z,1080
2017-10-29T08:59:59.330Z,1132
2017-10-29T09:00:39.934Z,1120
2017-10-29T09:01:20.541Z,1216
2017-10-29T09:02:01.152Z,1052
2017-10-29T09:02:41.760Z,1064
2017-10-29T09:03:22.387Z,880
2017-10-29T09:04:02.986Z,1120
2017-10-29T09:04:43.589Z,1128
2017-10-29T09:05:24.170Z,1192
2017-10-29T09:06:04.748Z,1280
2017-10-29T09:06:45.333Z,1640
2017-10-29T09:07:25.951Z,1696
2017-10-29T09:08:06.556Z,1824
2017-10-29T09:08:47.163Z,1628
2017-10-29T09:09:27.753Z,1692
2017-10-29T09:10:08.349Z,1792
2017-10-29T09:10:49.070Z,1972
2017-10-29T09:11:29.678Z,1844
2017-10-29T09:12:10.259Z,1704
2017-10-29T09:12:50.892Z,1584
2017-10-29T09:13:31.517Z,1748
2017-10-29T09:14:12.122Z,1344
2017-10-29T09:14:52.679Z,1368
2017-10-29T09:15:33.308Z,1776
2017-10-29T09:16:13.866Z,1920
2017-10-29T09:16:54.443Z,2188
2017-10-29T09:17:35.077Z,1836
2017-10-29T09:18:15.670Z,1820
2017-10-29T09:18:56.266Z,2192
2017-10-29T09:19:36.857Z,2032
2017-10-29T09:20:17.498Z,2512
2017-10-29T09:20:58.075Z,2576
2017-10-29T09:21:38.679Z,1888
2017-10-29T09:22:20.058Z,2628
2017-10-29T09:23:00.679Z,3284
2017-10-29T09:23:41.258Z,2456
2017-10-29T09:24:21.849Z,1676
2017-10-29T09:25:02.462Z,1348
2017-10-29T09:25:43.060Z,1320
2017-10-29T09:26:23.661Z,1600
2017-10-29T09:27:04.366Z,2136
2017-10-29T09:27:44.965Z,2164
2017-10-29T09:28:25.612Z,2504
2017-10-29T09:29:06.215Z,2476
2017-10-29T09:29:46.956Z,2236
2017-10-29T09:30:27.549Z,1864
2017-10-29T09:31:08.147Z,1924
2017-10-29T09:31:48.783Z,1928
2017-10-29T09:32:29.485Z,2016
2017-10-29T09:33:10.090Z,2052
2017-10-29T09:33:50.660Z,2076
2017-10-29T09:34:31.283Z,2180
2017-10-29T09:35:12.138Z,2428
2017-10-29T09:35:53.420Z,2716
2017-10-29T09:36:34.537Z,2776
2017-10-29T09:37:15.856Z,2596
2017-10-29T09:37:56.604Z,2700
2017-10-29T09:38:37.275Z,2564
2017-10-29T09:39:17.887Z,2492
2017-10-29T09:39:58.509Z,2488
2017-10-29T09:40:39.134Z,2688
2017-10-29T09:41:19.847Z,3016
2017-10-29T09:42:00.501Z,2916
2017-10-29T09:42:41.156Z,2616